Hawks Run Airport


Codes: 00WN/
Name: Hawks Run Airport
City: Asotin
Country: United States
Elevation: 2900 ft.

Photos at Hawks Run Airport


   Photos courtesy of SpottingLog. You can add your own sightings and photos by signing up for a free trial today.



No photos found.

Weather at Hawks Run Airport


Time (UTC)DescriptionTempratureWindCloud coverageVisibilityPressureHumidity
18-Apr-2024 00:00Scattered Clouds10°C11 mph, N34%10000m1027hPa39%
18-Apr-2024 03:00Scattered Clouds8°C4 mph, W29%10000m1027hPa44%
18-Apr-2024 06:00Few Clouds5°C7 mph, SW18%10000m1028hPa45%
18-Apr-2024 09:00Clear Sky2°C4 mph, SW2%10000m1028hPa51%
18-Apr-2024 12:00Clear Sky1°C2 mph, SW4%10000m1028hPa55%
18-Apr-2024 15:00Clear Sky5°C2 mph, SE3%10000m1027hPa49%
18-Apr-2024 18:00Clear Sky8°C7 mph, E3%10000m1025hPa43%
18-Apr-2024 21:00Light Rain9°C4 mph, N70%10000m1023hPa45%
19-Apr-2024 00:00Light Rain10°C7 mph, N74%10000m1022hPa38%
19-Apr-2024 03:00Broken Clouds5°C4 mph, N55%10000m1023hPa49%
19-Apr-2024 06:00Scattered Clouds3°C2 mph, W27%10000m1024hPa52%
19-Apr-2024 09:00Clear Sky2°C0 mph, SW0%10000m1024hPa63%
19-Apr-2024 12:00Clear Sky1°C2 mph, SE0%10000m1025hPa72%
19-Apr-2024 15:00Clear Sky4°C4 mph, E0%10000m1025hPa62%
19-Apr-2024 18:00Clear Sky8°C7 mph, E0%10000m1022hPa56%
19-Apr-2024 21:00Few Clouds12°C9 mph, E16%10000m1020hPa46%
20-Apr-2024 00:00Scattered Clouds11°C7 mph, N41%10000m1018hPa42%
20-Apr-2024 03:00Overcast Clouds8°C4 mph, W96%10000m1018hPa50%
20-Apr-2024 06:00Broken Clouds5°C4 mph, SW81%10000m1020hPa66%
20-Apr-2024 09:00Clear Sky3°C2 mph, SW0%10000m1021hPa72%
20-Apr-2024 12:00Clear Sky2°C2 mph, SE1%10000m1022hPa79%
20-Apr-2024 15:00Scattered Clouds5°C4 mph, SE29%10000m1022hPa70%
20-Apr-2024 18:00Broken Clouds10°C7 mph, E57%10000m1020hPa58%
20-Apr-2024 21:00Scattered Clouds14°C9 mph, NE30%10000m1018hPa52%
21-Apr-2024 00:00Scattered Clouds13°C7 mph, NE45%10000m1016hPa58%
21-Apr-2024 03:00Broken Clouds9°C2 mph, S52%10000m1016hPa74%
21-Apr-2024 06:00Broken Clouds10°C4 mph, SW63%10000m1017hPa64%
21-Apr-2024 09:00Overcast Clouds7°C9 mph, SW100%10000m1020hPa68%
21-Apr-2024 12:00Overcast Clouds5°C7 mph, SW100%10000m1022hPa69%
21-Apr-2024 15:00Overcast Clouds6°C7 mph, SW100%10000m1023hPa49%
21-Apr-2024 18:00Overcast Clouds10°C4 mph, SW90%10000m1020hPa32%
21-Apr-2024 21:00Clear Sky12°C7 mph, NE4%10000m1018hPa33%
22-Apr-2024 00:00Clear Sky12°C9 mph, W7%10000m1017hPa34%
22-Apr-2024 03:00Broken Clouds6°C4 mph, SW82%10000m1019hPa60%
22-Apr-2024 06:00Broken Clouds4°C7 mph, SW65%10000m1019hPa60%
22-Apr-2024 09:00Scattered Clouds3°C4 mph, SW46%10000m1019hPa59%
22-Apr-2024 12:00Few Clouds2°C4 mph, S23%10000m1018hPa64%
22-Apr-2024 15:00Clear Sky6°C4 mph, SE3%10000m1017hPa57%
22-Apr-2024 18:00Clear Sky11°C7 mph, E5%10000m1014hPa47%
22-Apr-2024 21:00Clear Sky13°C9 mph, NE2%10000m1011hPa43%